Decoded Metar for KBED (BEDFORD in MA, USA) (IATA:BED) | Meteo·Mobile Aviation Weather
aviador You're here:

KBED Decoded Metar

BEDFORD in MA, USA
Report Time2018-12-17 09:56:00
UTC Time2018-12-17 10:54:10
Flight Rules ifr IFR
Wind350° at 09 kt
W.Decomp.*RWY 05: 6.5 kt HW 6.3 kt LCW
RWY 29: 2.2 kt HW 8.7 kt RCW
W.Rank350° ranks 18
Current wind is above 350° avg. (6.6)
Visibility9999 m
Phenomena:Light Snow
Clouds:Overcast 009 Hf
Expected CloudBase > 800 ft AGL from Temp-Dew spread
Ceiling900 ft
Temp02°C (ISA -13)
Dew Point00°C (87% RH)
AAT-3.2°C
QNH1005 hPa
Density Alt-1,020 ft
Elevation164 ft
Report Wrong Elevation
Raw Report
KBED 170956Z AUTO 35009KT 7SM -SN OVC009 02/00 A2967 RMK AO2
RAE31UPB36E47SNB50 CIG 005V011 SLP063 P0000 T00170000=

Extra information for KBED:More info

Metar Taf Metar & Taf Last 4 Metars F.Rules Stats Wind Profile Meteogram Temp Stats Airport Information Weather charts Add Link Nearby VenuesMetar ALERT Operation Metar Decoded Social comments

AIRNAV info for KBED